Aviation Digital Data Service (ADDS)

Output produced by METARs form (1520 UTC 21 July 2017)
found at http://www.aviationweather.gov/adds/metars/
 
KMSS 211453Z AUTO 21010KT 10SM BKN021 BKN027 24/19 A2985 RMK AO2 SLP106 T02440194 58008
KMSS 211429Z AUTO 23008KT 10SM BKN019 24/19 A2985 RMK AO2 T02390194
KMSS 211353Z AUTO 23007KT 10SM FEW018 23/19 A2985 RMK AO2 SLP108 T02330189
KMSS 211253Z AUTO 22010KT 10SM BKN039 21/18 A2988 RMK AO2 SLP117 T02110183
KMSS 211130Z 2112/2212 22008KT P6SM SKC 
     FM211600 26008KT P6SM SCT050 
     FM220000 22005KT P6SM SKC